Weather at Darchula Airport

Public forecast

Using degrees Celsius for public forecast. Weather courtesy of forecast.io.

Closest aviation weather report (METAR) to Darchula Airport

Closest report is Pantnagar Airport, 67.9 nm (125.8 km) SW.

2024/05/20 05:00 (retrieved 32 minutes ago)

VIPT 200500Z 10011KT 5000 HZ NSC 34/21 Q1004

Closest aviation forecast (TAF) to Darchula Airport

Forecast is more than 12 hours old.

Closest forecast is Pantnagar Airport, 67.9 nm (125.8 km) SW.

2024/05/19 12:00 (retrieved 18 hours ago)

TAF VIPT 191100Z 1912/2018 VRB02KT 4500 HZ FEW030 BECMG 2000/2002 07005KT 2000 HZ FEW030 SCT080 BECMG 2006/2008 16008G18KT 5000 HZ BECMG 2014/2016 07006KT 4000 HZ FEW100